Time;durP1;ratioP1;P1;durP2;ratioP2;P2;SDS_P1;SDS_P2;PMS_P1;PMS_P2;Temp;Humidity;BMP_temperature;BMP_pressure;BME280_temperature;BME280_humidity;BME280_pressure;Samples;Min_cycle;Max_cycle;Signal;HPM_P1;HPM_P2
2022/04/14 00:02:23;;;;;;;34.42;22.48;;;;;;;10.79;100.00;101951.72;5050244;28;20526;-58
2022/04/14 00:04:51;;;;;;;36.95;23.58;;;;;;;10.81;100.00;101944.59;5047535;28;20759;-55
2022/04/14 00:07:19;;;;;;;35.75;23.35;;;;;;;10.72;100.00;101943.28;5049980;28;20079;-58
2022/04/14 00:09:47;;;;;;;39.35;24.67;;;;;;;10.72;100.00;101945.06;5049868;28;20454;-55
2022/04/14 00:12:15;;;;;;;39.33;25.92;;;;;;;10.65;100.00;101940.09;5049841;28;20048;-55
2022/04/14 00:14:44;;;;;;;39.22;24.70;;;;;;;10.62;100.00;101936.75;5050019;28;20131;-58
2022/04/14 00:17:13;;;;;;;37.08;23.85;;;;;;;10.61;100.00;101935.91;5048933;28;20053;-55
2022/04/14 00:19:42;;;;;;;40.13;23.35;;;;;;;10.62;100.00;101936.75;5047872;28;20053;-53
2022/04/14 00:22:10;;;;;;;38.05;23.17;;;;;;;10.60;100.00;101935.97;5049726;28;20091;-54
2022/04/14 00:24:38;;;;;;;35.10;23.10;;;;;;;10.56;100.00;101930.00;5049693;28;20061;-58
2022/04/14 00:27:06;;;;;;;34.10;22.40;;;;;;;10.58;100.00;101935.19;5049130;28;20041;-58
2022/04/14 00:29:34;;;;;;;31.25;21.35;;;;;;;10.55;100.00;101933.59;5049318;28;20075;-58
2022/04/14 00:32:02;;;;;;;35.30;22.73;;;;;;;10.50;100.00;101938.22;5047916;28;20102;-55
2022/04/14 00:34:32;;;;;;;32.13;21.63;;;;;;;10.48;100.00;101935.66;5047644;28;20053;-55
2022/04/14 00:37:00;;;;;;;35.08;23.10;;;;;;;10.48;100.00;101929.53;5049531;28;20049;-54
2022/04/14 00:39:28;;;;;;;34.35;21.42;;;;;;;10.50;100.00;101935.56;5048875;28;20136;-54
2022/04/14 00:41:57;;;;;;;33.67;22.08;;;;;;;10.47;100.00;101928.69;5048985;28;20053;-55
2022/04/14 00:44:25;;;;;;;32.50;21.20;;;;;;;10.51;100.00;101921.47;5048774;28;20089;-59
2022/04/14 00:46:53;;;;;;;33.90;22.63;;;;;;;10.52;100.00;101925.81;5048681;28;20057;-56
2022/04/14 00:49:21;;;;;;;32.70;20.38;;;;;;;10.46;100.00;101928.75;5047068;28;20403;-53
2022/04/14 00:51:51;;;;;;;31.10;21.10;;;;;;;10.40;100.00;101929.91;5049143;28;20053;-54
2022/04/14 00:54:19;;;;;;;34.38;21.70;;;;;;;10.41;100.00;101930.75;5048514;28;20095;-53
2022/04/14 00:56:47;;;;;;;35.53;22.85;;;;;;;10.41;100.00;101930.75;5047724;28;20060;-54
2022/04/14 00:59:15;;;;;;;36.15;23.42;;;;;;;10.41;100.00;101926.31;5048439;28;20123;-57
2022/04/14 01:01:43;;;;;;;36.25;23.45;;;;;;;10.42;100.00;101933.28;5048799;28;20053;-58
2022/04/14 01:04:13;;;;;;;39.10;23.70;;;;;;;10.36;100.00;101930.97;5047339;28;20110;-58
2022/04/14 01:06:41;;;;;;;39.65;23.75;;;;;;;10.36;100.00;101930.09;5048689;28;20540;-58
2022/04/14 01:09:20;;;;;;;43.33;24.30;;;;;;;10.39;100.00;101929.94;5048933;28;20045;-59
2022/04/14 01:11:50;;;;;;;50.35;26.10;;;;;;;10.37;100.00;101921.28;5048713;28;20056;-54
2022/04/14 01:14:26;;;;;;;48.83;27.60;;;;;;;10.34;100.00;101921.41;5048456;28;20056;-55
2022/04/14 01:16:54;;;;;;;52.80;27.10;;;;;;;10.30;100.00;101918.91;5047714;28;20053;-54
2022/04/14 01:19:23;;;;;;;47.38;26.77;;;;;;;10.29;100.00;101925.13;5046081;28;20049;-60
2022/04/14 01:21:57;;;;;;;83.68;32.63;;;;;;;10.30;100.00;101918.06;5047933;28;20080;-53
2022/04/14 01:24:27;;;;;;;63.42;29.73;;;;;;;10.25;100.00;101920.91;5048393;28;20053;-54
2022/04/14 01:26:56;;;;;;;51.30;28.17;;;;;;;10.22;100.00;101920.19;5048451;28;20045;-55
2022/04/14 01:29:26;;;;;;;63.75;29.83;;;;;;;10.20;100.00;101915.03;5049038;28;20037;-55
2022/04/14 01:31:55;;;;;;;65.32;29.42;;;;;;;10.21;100.00;101915.84;5049070;28;20128;-53
2022/04/14 01:34:24;;;;;;;65.35;31.42;;;;;;;10.18;100.00;101919.47;5045866;28;20045;-57
2022/04/14 01:36:52;;;;;;;56.88;32.63;;;;;;;10.17;100.00;101916.94;5047337;28;20053;-58
2022/04/14 01:39:20;;;;;;;45.10;27.90;;;;;;;10.12;100.00;101912.72;5047960;28;20059;-58
2022/04/14 01:41:50;;;;;;;50.00;29.13;;;;;;;10.11;100.00;101912.81;5047918;28;20045;-53
2022/04/14 01:44:18;;;;;;;44.42;25.88;;;;;;;10.12;100.00;101923.25;5048564;28;20111;-55
2022/04/14 01:46:46;;;;;;;46.03;28.75;;;;;;;10.11;100.00;101918.91;5046983;28;20052;-58
2022/04/14 01:49:14;;;;;;;46.20;27.20;;;;;;;10.15;100.00;101919.63;5045480;28;20052;-55
2022/04/14 01:51:42;;;;;;;44.30;26.05;;;;;;;10.10;100.00;101916.34;5048327;28;20682;-58
2022/04/14 01:54:10;;;;;;;42.58;27.83;;;;;;;10.10;100.00;101921.63;5048822;28;20056;-58
2022/04/14 01:56:38;;;;;;;43.92;27.17;;;;;;;10.11;100.00;101923.31;5047312;28;20079;-55
2022/04/14 01:59:08;;;;;;;40.75;26.25;;;;;;;10.07;100.00;101924.38;5047434;28;20515;-57
2022/04/14 02:01:36;;;;;;;39.65;26.83;;;;;;;10.04;100.00;101935.88;5047753;28;20057;-58
2022/04/14 02:04:07;;;;;;;45.92;24.10;;;;;;;10.05;100.00;101929.72;5046021;28;20136;-58
2022/04/14 02:06:35;;;;;;;44.97;24.50;;;;;;;10.04;100.00;101928.00;5048062;28;20507;-58
2022/04/14 02:09:04;;;;;;;37.67;25.35;;;;;;;9.95;100.00;101933.69;5047667;28;20071;-55
2022/04/14 02:11:32;;;;;;;33.88;23.35;;;;;;;9.97;100.00;101932.69;5048171;28;20156;-56
2022/04/14 02:14:00;;;;;;;32.28;21.98;;;;;;;9.89;100.00;101940.06;5047393;28;20064;-55
2022/04/14 02:16:30;;;;;;;30.73;21.40;;;;;;;9.82;100.00;101931.59;5048054;28;20072;-54
2022/04/14 02:18:58;;;;;;;31.23;22.83;;;;;;;9.82;100.00;101928.13;5045662;28;20264;-58
2022/04/14 02:21:26;;;;;;;37.85;21.42;;;;;;;9.86;100.00;101934.09;5047998;28;20073;-58
2022/04/14 02:23:54;;;;;;;36.17;22.40;;;;;;;9.81;100.00;101935.13;5047450;28;20056;-53
2022/04/14 02:26:22;;;;;;;32.47;22.10;;;;;;;9.82;100.00;101938.63;5047721;28;20052;-54
2022/04/14 02:28:50;;;;;;;41.90;21.50;;;;;;;9.74;100.00;101938.13;5047446;28;20506;-58
2022/04/14 02:31:18;;;;;;;35.15;22.40;;;;;;;9.78;100.00;101942.31;5052158;28;20107;-58
2022/04/14 02:33:48;;;;;;;42.20;22.77;;;;;;;9.71;100.00;101946.16;5049427;28;20049;-58
2022/04/14 02:36:17;;;;;;;40.13;22.75;;;;;;;9.73;100.00;101946.94;5052089;28;20379;-54
2022/04/14 02:38:45;;;;;;;33.42;23.25;;;;;;;9.77;100.00;101945.88;5051142;28;20132;-53
2022/04/14 02:41:13;;;;;;;40.53;22.25;;;;;;;9.73;100.00;101949.56;5051570;28;20056;-58
2022/04/14 02:43:41;;;;;;;35.30;23.05;;;;;;;9.74;100.00;101956.53;5051251;28;20049;-58
2022/04/14 02:46:09;;;;;;;36.67;24.40;;;;;;;9.67;100.00;101950.69;5050806;28;20171;-58
2022/04/14 02:48:37;;;;;;;41.08;23.25;;;;;;;9.68;100.00;101954.16;5049267;28;20041;-57
2022/04/14 02:51:07;;;;;;;37.33;23.52;;;;;;;9.72;100.00;101951.34;5051085;28;20495;-54
2022/04/14 02:53:35;;;;;;;50.10;24.77;;;;;;;9.73;100.00;101954.81;5050907;28;20049;-53
2022/04/14 02:56:05;;;;;;;51.28;25.52;;;;;;;9.67;100.00;101944.56;5050913;28;20049;-58
2022/04/14 02:58:33;;;;;;;41.65;26.75;;;;;;;9.63;100.00;101949.09;5050950;28;20051;-55
2022/04/14 03:01:01;;;;;;;42.80;26.85;;;;;;;9.69;100.00;101950.59;5050438;28;20045;-53
2022/04/14 03:03:29;;;;;;;40.17;26.50;;;;;;;9.65;100.00;101952.50;5049185;28;20060;-58
2022/04/14 03:05:58;;;;;;;44.97;26.40;;;;;;;9.60;100.00;101952.72;5050009;28;20048;-58
2022/04/14 03:08:27;;;;;;;43.05;27.52;;;;;;;9.58;100.00;101946.66;5050137;28;20396;-58
2022/04/14 03:10:55;;;;;;;42.95;27.83;;;;;;;9.62;100.00;101952.66;5050379;28;20040;-58
2022/04/14 03:13:23;;;;;;;43.22;28.38;;;;;;;9.62;100.00;101950.03;5050470;28;20048;-58
2022/04/14 03:15:51;;;;;;;40.40;26.73;;;;;;;9.61;100.00;101946.56;5050066;28;20064;-58
2022/04/14 03:18:20;;;;;;;45.15;27.80;;;;;;;9.59;100.00;101948.38;5049223;28;20597;-58
2022/04/14 03:20:48;;;;;;;38.30;26.45;;;;;;;9.58;100.00;101940.56;5050383;28;20053;-58
2022/04/14 03:23:16;;;;;;;40.55;27.45;;;;;;;9.67;100.00;101953.31;5050933;28;20132;-57
2022/04/14 03:25:46;;;;;;;39.58;27.35;;;;;;;9.60;100.00;101950.09;5050722;28;20063;-58
2022/04/14 03:28:14;;;;;;;41.88;26.95;;;;;;;9.62;100.00;101947.41;5050300;28;20128;-58
2022/04/14 03:30:42;;;;;;;42.63;28.50;;;;;;;9.53;100.00;101947.78;5050432;28;20414;-58
2022/04/14 03:33:10;;;;;;;42.10;27.33;;;;;;;9.54;100.00;101955.59;5048685;28;20073;-58
2022/04/14 03:35:38;;;;;;;45.83;28.63;;;;;;;9.50;100.00;101951.41;5050540;28;20446;-58
2022/04/14 03:38:07;;;;;;;45.65;29.20;;;;;;;9.54;100.00;101947.72;5050000;28;20114;-58
2022/04/14 03:40:56;;;;;;;58.50;30.35;;;;;;;9.50;100.00;101946.13;5049469;28;20422;-58
2022/04/14 03:43:24;;;;;;;53.75;28.00;;;;;;;9.52;100.00;101949.56;5050057;28;20041;-59
2022/04/14 03:45:52;;;;;;;106.80;29.58;;;;;;;9.49;100.00;101947.09;5049731;28;20045;-58
2022/04/14 03:48:20;;;;;;;67.07;28.80;;;;;;;9.39;100.00;101953.63;5048557;28;20063;-58
2022/04/14 03:50:48;;;;;;;47.22;30.65;;;;;;;9.38;100.00;101944.91;5050158;28;20049;-58
2022/04/14 03:53:17;;;;;;;52.03;29.02;;;;;;;9.33;100.00;101946.88;5050403;28;20055;-59
2022/04/14 03:55:46;;;;;;;42.70;28.58;;;;;;;9.39;100.00;101943.13;5049996;28;20647;-58
2022/04/14 03:58:16;;;;;;;40.38;27.42;;;;;;;9.42;100.00;101945.63;5050359;28;20387;-58
2022/04/14 04:00:44;;;;;;;48.55;27.08;;;;;;;9.31;100.00;101943.44;5049015;28;20041;-59
2022/04/14 04:03:13;;;;;;;55.80;28.95;;;;;;;9.27;100.00;101945.38;5048838;28;20077;-58
2022/04/14 04:05:42;;;;;;;69.82;29.17;;;;;;;9.25;100.00;101946.34;5049735;28;20056;-58
2022/04/14 04:08:10;;;;;;;49.50;29.02;;;;;;;9.30;100.00;101937.34;5049362;28;20048;-58
2022/04/14 04:10:38;;;;;;;45.45;28.83;;;;;;;9.31;100.00;101943.44;5049781;28;20047;-58
2022/04/14 04:13:06;;;;;;;71.43;29.60;;;;;;;9.26;100.00;101945.44;5049583;28;20041;-58
2022/04/14 04:15:36;;;;;;;52.65;30.52;;;;;;;9.24;100.00;101942.88;5049617;28;20549;-58
2022/04/14 04:18:06;;;;;;;50.00;28.67;;;;;;;9.36;100.00;101945.91;5048020;28;20127;-58
2022/04/14 04:20:34;;;;;;;41.80;29.40;;;;;;;9.35;100.00;101946.81;5049572;28;20082;-52
2022/04/14 04:23:04;;;;;;;48.05;29.27;;;;;;;9.40;100.00;101956.19;5049125;28;20057;-52
2022/04/14 04:25:33;;;;;;;67.45;28.65;;;;;;;9.36;100.00;101956.41;5049668;28;20041;-54
2022/04/14 04:28:01;;;;;;;44.60;26.65;;;;;;;9.37;100.00;101960.75;5048917;28;20461;-55
2022/04/14 04:30:29;;;;;;;49.63;26.77;;;;;;;9.38;100.00;101963.28;5049569;28;20157;-52
2022/04/14 04:32:59;;;;;;;49.30;26.63;;;;;;;9.41;100.00;101965.78;5047295;28;20107;-52
2022/04/14 04:35:27;;;;;;;48.15;27.58;;;;;;;9.46;100.00;101969.06;5049758;28;20045;-53
2022/04/14 04:37:55;;;;;;;48.33;25.85;;;;;;;9.40;100.00;101968.47;5048490;28;20049;-53
2022/04/14 04:40:23;;;;;;;36.13;26.17;;;;;;;9.35;100.00;101968.66;5049645;28;20049;-52
2022/04/14 04:42:52;;;;;;;38.67;24.88;;;;;;;9.35;100.00;101973.06;5047519;28;20087;-55
2022/04/14 04:45:20;;;;;;;39.42;25.58;;;;;;;9.37;100.00;101979.97;5049346;28;20045;-54
2022/04/14 04:47:48;;;;;;;46.67;25.80;;;;;;;9.32;100.00;101981.06;5048421;28;20056;-54
2022/04/14 04:50:19;;;;;;;55.55;26.40;;;;;;;9.19;100.00;101970.22;5055280;28;20044;-53
2022/04/14 04:52:47;;;;;;;40.30;25.70;;;;;;;9.22;100.00;101977.97;5054215;28;20547;-55
2022/04/14 04:55:15;;;;;;;37.30;27.27;;;;;;;9.19;100.00;101968.47;5052633;28;20067;-55
2022/04/14 04:57:43;;;;;;;51.97;25.65;;;;;;;9.22;100.00;101981.44;5057082;28;20044;-53
2022/04/14 05:00:12;;;;;;;40.15;26.98;;;;;;;9.22;100.00;101984.06;5061509;28;20148;-53
2022/04/14 05:02:40;;;;;;;39.10;25.42;;;;;;;9.32;100.00;101987.16;5054531;28;20091;-55
2022/04/14 05:05:09;;;;;;;37.22;26.42;;;;;;;9.24;100.00;101984.00;5047851;28;20727;-54
2022/04/14 05:07:38;;;;;;;36.70;26.58;;;;;;;9.27;100.00;101992.63;5048201;28;20508;-54
2022/04/14 05:10:08;;;;;;;38.03;25.88;;;;;;;9.32;100.00;101991.56;5048509;28;20049;-53
2022/04/14 05:12:36;;;;;;;46.45;25.70;;;;;;;9.31;100.00;102001.19;5048600;28;20392;-59
2022/04/14 05:15:05;;;;;;;43.67;24.40;;;;;;;9.29;100.00;102000.44;5048697;28;20115;-58
2022/04/14 05:17:33;;;;;;;50.47;25.45;;;;;;;9.28;100.00;101998.72;5047862;28;20049;-58
2022/04/14 05:20:02;;;;;;;38.20;25.30;;;;;;;9.33;100.00;101993.28;5047551;28;20422;-58
2022/04/14 05:22:30;;;;;;;38.78;25.02;;;;;;;9.28;100.00;101996.97;5048746;28;20555;-58
2022/04/14 05:25:01;;;;;;;36.72;25.08;;;;;;;9.20;100.00;101996.41;5047798;28;20081;-58
2022/04/14 05:27:29;;;;;;;37.35;25.85;;;;;;;9.24;100.00;102000.63;5048452;28;20498;-58
2022/04/14 05:29:57;;;;;;;38.03;25.48;;;;;;;9.24;100.00;102002.38;5048368;28;20403;-58
2022/04/14 05:32:26;;;;;;;36.30;25.33;;;;;;;9.26;100.00;102003.19;5048476;28;20105;-58
2022/04/14 05:34:56;;;;;;;42.78;26.00;;;;;;;9.28;100.00;102010.09;5046711;28;20947;-58
2022/04/14 05:37:25;;;;;;;46.85;25.95;;;;;;;9.25;100.00;102002.31;5047490;28;20148;-58
2022/04/14 05:39:53;;;;;;;47.42;26.08;;;;;;;9.23;100.00;101995.41;5047910;28;20496;-53
2022/04/14 05:42:22;;;;;;;55.22;26.05;;;;;;;9.25;100.00;101996.22;5048514;28;20135;-53
2022/04/14 05:44:51;;;;;;;43.10;26.92;;;;;;;9.25;100.00;101993.59;5047564;28;20052;-52
2022/04/14 05:47:23;;;;;;;55.33;25.42;;;;;;;9.11;100.00;102004.66;5047758;28;20061;-52
2022/04/14 05:49:52;;;;;;;39.03;24.52;;;;;;;9.13;100.00;102002.81;5046000;28;20051;-54
2022/04/14 05:52:20;;;;;;;42.05;24.08;;;;;;;9.11;100.00;102007.28;5048738;28;20059;-55
2022/04/14 05:54:49;;;;;;;36.45;25.30;;;;;;;9.05;100.00;102005.78;5048137;28;20435;-53
2022/04/14 05:57:18;;;;;;;39.40;24.73;;;;;;;9.09;100.00;102016.97;5051461;28;20055;-52
2022/04/14 05:59:47;;;;;;;55.65;24.77;;;;;;;9.10;100.00;102022.16;5047671;28;20377;-53
2022/04/14 06:02:17;;;;;;;37.20;24.65;;;;;;;9.10;100.00;102024.78;5047893;28;20049;-54
2022/04/14 06:04:45;;;;;;;32.72;22.92;;;;;;;9.13;100.00;102026.44;5050219;28;20483;-53
2022/04/14 06:07:13;;;;;;;33.13;24.25;;;;;;;9.19;100.00;102030.56;5052366;28;20123;-54
2022/04/14 06:09:42;;;;;;;38.63;24.45;;;;;;;9.23;100.00;102024.28;5051801;28;20061;-52
2022/04/14 06:12:10;;;;;;;35.75;24.40;;;;;;;9.25;100.00;102033.81;5052173;28;20072;-52
2022/04/14 06:14:50;;;;;;;31.58;23.13;;;;;;;9.32;100.00;102034.41;5051953;28;20649;-54
2022/04/14 06:17:18;;;;;;;34.30;24.65;;;;;;;9.33;100.00;102035.28;5050696;28;20068;-51
2022/04/14 06:19:46;;;;;;;49.72;25.38;;;;;;;9.33;100.00;102036.13;5050460;28;20485;-51
2022/04/14 06:22:14;;;;;;;35.35;25.50;;;;;;;9.38;100.00;102038.56;5052467;28;20040;-54
2022/04/14 06:24:42;;;;;;;36.55;26.40;;;;;;;9.40;100.00;102042.00;5051207;28;20049;-55
2022/04/14 06:27:10;;;;;;;39.88;27.27;;;;;;;9.50;100.00;102035.44;5051943;28;20059;-54
2022/04/14 06:29:38;;;;;;;43.13;28.45;;;;;;;9.59;100.00;102032.41;5051377;28;20341;-54
2022/04/14 06:32:09;;;;;;;46.28;28.75;;;;;;;9.49;100.00;102033.75;5049368;28;20056;-55
2022/04/14 06:34:43;;;;;;;42.40;28.60;;;;;;;9.55;100.00;102028.22;5048101;28;20087;-54
2022/04/14 06:37:11;;;;;;;50.45;30.70;;;;;;;9.67;100.00;102028.59;5051070;28;20495;-53
2022/04/14 06:39:39;;;;;;;45.25;28.90;;;;;;;9.68;100.00;102033.81;5050986;28;20048;-52
2022/04/14 06:42:08;;;;;;;47.50;30.75;;;;;;;9.72;100.00;102035.41;5051116;28;20503;-53
2022/04/14 06:44:36;;;;;;;49.92;31.13;;;;;;;9.82;100.00;102049.00;5051188;28;20530;-55
2022/04/14 06:47:04;;;;;;;49.28;32.63;;;;;;;9.92;100.00;102039.78;5049207;28;20049;-54
2022/04/14 06:49:34;;;;;;;46.47;30.17;;;;;;;10.01;100.00;102043.78;5049636;28;20059;-53
2022/04/14 06:52:02;;;;;;;50.47;32.10;;;;;;;10.00;100.00;102043.88;5051474;28;20059;-54
2022/04/14 06:54:30;;;;;;;46.85;30.35;;;;;;;10.10;100.00;102042.53;5051417;28;20045;-53
2022/04/14 06:56:59;;;;;;;47.08;30.58;;;;;;;10.20;100.00;102051.72;5051261;28;20041;-53
2022/04/14 06:59:27;;;;;;;45.25;30.95;;;;;;;10.18;100.00;102045.66;5051102;28;20045;-53
2022/04/14 07:01:55;;;;;;;45.78;30.13;;;;;;;10.29;100.00;102048.69;5050259;28;20045;-53
2022/04/14 07:04:24;;;;;;;41.78;30.15;;;;;;;10.39;100.00;102049.16;5049540;28;20061;-54
2022/04/14 07:06:53;;;;;;;44.30;29.92;;;;;;;10.47;100.00;102048.78;5050505;28;20057;-53
2022/04/14 07:09:21;;;;;;;43.05;28.77;;;;;;;10.63;100.00;102046.31;5050839;28;20053;-54
2022/04/14 07:11:49;;;;;;;41.80;29.15;;;;;;;10.78;100.00;102044.75;5050264;28;20439;-55
2022/04/14 07:14:19;;;;;;;42.78;28.10;;;;;;;10.90;100.00;102045.97;5050774;28;20049;-54
2022/04/14 07:16:47;;;;;;;39.05;29.25;;;;;;;11.02;100.00;102042.75;5049726;28;20055;-53
2022/04/14 07:19:15;;;;;;;38.90;29.30;;;;;;;11.14;100.00;102043.94;5049438;28;20381;-54
2022/04/14 07:21:43;;;;;;;38.47;28.48;;;;;;;11.31;100.00;102038.69;5050489;28;20049;-53
2022/04/14 07:24:13;;;;;;;38.30;28.40;;;;;;;11.46;100.00;102031.78;5049266;28;20037;-53
2022/04/14 07:26:41;;;;;;;37.50;26.73;;;;;;;11.62;100.00;102041.59;5050267;28;20073;-54
2022/04/14 07:29:09;;;;;;;37.08;27.30;;;;;;;11.76;100.00;102038.25;5050336;28;20377;-54
2022/04/14 07:31:37;;;;;;;32.45;25.00;;;;;;;11.89;100.00;102046.34;5050602;28;20068;-55
2022/04/14 07:34:08;;;;;;;31.90;24.90;;;;;;;12.03;100.00;102043.91;5048543;28;20918;-54
2022/04/14 07:36:36;;;;;;;30.13;23.88;;;;;;;12.21;100.00;102042.06;5051066;28;20475;-54
2022/04/14 07:39:05;;;;;;;30.85;23.75;;;;;;;12.33;100.00;102046.69;5049755;28;20783;-54
2022/04/14 07:41:34;;;;;;;32.08;23.33;;;;;;;12.47;100.00;102056.50;5050432;28;20535;-53
2022/04/14 07:44:04;;;;;;;29.75;22.95;;;;;;;12.52;100.00;102053.63;5048643;28;20072;-54
2022/04/14 07:46:32;;;;;;;30.58;22.13;;;;;;;12.73;100.00;102053.38;5050074;28;20098;-53
2022/04/14 07:49:00;;;;;;;28.60;22.15;;;;;;;12.88;100.00;102057.81;5047748;28;20075;-54
2022/04/14 07:51:28;;;;;;;27.65;22.23;;;;;;;13.05;100.00;102061.28;5050402;28;20052;-55
2022/04/14 07:53:56;;;;;;;27.00;20.75;;;;;;;13.19;100.00;102066.66;5049575;28;20859;-55
2022/04/14 07:56:24;;;;;;;28.50;22.02;;;;;;;13.35;100.00;102059.59;5050345;28;20069;-56
2022/04/14 07:58:54;;;;;;;26.42;20.15;;;;;;;13.59;100.00;102060.88;5049690;28;20045;-55
2022/04/14 08:01:22;;;;;;;29.08;20.98;;;;;;;13.77;100.00;102064.25;5049491;28;20498;-55
2022/04/14 08:03:50;;;;;;;28.27;20.73;;;;;;;13.82;100.00;102059.53;5047857;28;20048;-54
2022/04/14 08:06:18;;;;;;;27.38;20.27;;;;;;;13.97;100.00;102061.25;5049917;28;20566;-54
2022/04/14 08:08:46;;;;;;;25.10;18.40;;;;;;;14.16;100.00;102071.56;5049258;28;20526;-56
2022/04/14 08:11:15;;;;;;;25.25;18.60;;;;;;;14.36;100.00;102065.06;5049988;28;20460;-55
2022/04/14 08:13:43;;;;;;;22.50;17.05;;;;;;;14.56;100.00;102067.41;5049047;28;20128;-57
2022/04/14 08:16:12;;;;;;;24.15;18.58;;;;;;;14.67;100.00;102068.47;5048511;28;20098;-56
2022/04/14 08:18:41;;;;;;;24.42;18.30;;;;;;;14.83;100.00;102064.84;5046857;28;20052;-53
2022/04/14 08:21:09;;;;;;;27.52;18.63;;;;;;;14.99;100.00;102060.25;5049051;28;20106;-55
2022/04/14 08:23:39;;;;;;;23.83;17.92;;;;;;;15.05;100.00;102066.94;5048374;28;20102;-55
2022/04/14 08:26:12;;;;;;;25.15;17.63;;;;;;;15.29;100.00;102068.97;5048726;28;21071;-54
2022/04/14 08:28:46;;;;;;;22.45;16.60;;;;;;;15.45;100.00;102060.84;5048933;28;20124;-56
2022/04/14 08:31:16;;;;;;;22.58;16.77;;;;;;;15.42;100.00;102071.66;5049207;28;20048;-56
2022/04/14 08:33:44;;;;;;;21.40;17.00;;;;;;;15.66;100.00;102067.34;5047437;28;20045;-55
2022/04/14 08:36:15;;;;;;;18.50;12.98;;;;;;;15.79;96.85;102067.38;5049818;28;20141;-55
2022/04/14 08:38:45;;;;;;;18.05;12.43;;;;;;;15.78;97.89;102072.78;5048768;28;20057;-55
2022/04/14 08:41:16;;;;;;;16.70;12.23;;;;;;;15.98;97.23;102074.09;5049405;28;20045;-54
2022/04/14 08:43:49;;;;;;;15.45;11.45;;;;;;;16.12;95.21;102074.00;5048751;28;20498;-56
2022/04/14 08:46:20;;;;;;;15.57;11.07;;;;;;;16.31;93.15;102076.22;5049028;28;20055;-56
2022/04/14 08:48:55;;;;;;;16.52;11.35;;;;;;;16.45;92.72;102064.63;5047034;28;20129;-56
2022/04/14 08:51:23;;;;;;;15.82;10.80;;;;;;;16.57;91.33;102065.56;5049096;28;20157;-53
2022/04/14 08:53:51;;;;;;;15.88;10.32;;;;;;;16.80;90.76;102060.44;5048685;28;20043;-54
2022/04/14 08:56:24;;;;;;;14.65;8.82;;;;;;;16.81;87.28;102055.00;5049127;28;20388;-55
2022/04/14 08:58:55;;;;;;;16.73;9.75;;;;;;;16.96;87.85;102060.16;5047799;28;20052;-56
2022/04/14 09:01:27;;;;;;;13.88;9.38;;;;;;;16.98;86.78;102059.09;5048615;28;20144;-55
2022/04/14 09:03:57;;;;;;;14.10;8.27;;;;;;;17.21;85.95;102054.75;5046716;28;20495;-55
2022/04/14 09:06:29;;;;;;;14.85;9.00;;;;;;;17.24;84.27;102056.31;5049241;28;20056;-55
2022/04/14 09:08:59;;;;;;;14.50;10.32;;;;;;;17.33;84.37;102058.31;5047999;28;20049;-55
2022/04/14 09:11:29;;;;;;;15.77;9.43;;;;;;;17.67;84.95;102053.09;5048774;28;20403;-56
2022/04/14 09:14:00;;;;;;;15.93;9.15;;;;;;;17.93;81.41;102044.97;5047874;28;20079;-55
2022/04/14 09:16:32;;;;;;;13.82;8.55;;;;;;;18.13;80.53;102047.88;5048454;28;20041;-54
2022/04/14 09:19:02;;;;;;;13.15;8.13;;;;;;;18.20;78.20;102046.41;5046352;28;20399;-54
2022/04/14 09:21:30;;;;;;;12.05;7.97;;;;;;;18.40;78.07;102044.84;5048960;28;20623;-55
2022/04/14 09:23:58;;;;;;;13.30;7.47;;;;;;;18.53;75.52;102055.38;5046374;28;20491;-54
2022/04/14 09:26:26;;;;;;;12.52;7.97;;;;;;;18.73;75.20;102049.28;5048632;28;20407;-56
2022/04/14 09:29:01;;;;;;;12.50;6.93;;;;;;;18.73;74.21;102051.94;5047910;28;20049;-54
2022/04/14 09:31:46;;;;;;;12.85;6.97;;;;;;;19.04;73.69;102051.28;5048449;28;20518;-53
2022/04/14 09:34:17;;;;;;;12.95;7.47;;;;;;;19.33;72.93;102056.84;5047153;28;20045;-55
2022/04/14 09:37:06;;;;;;;11.90;6.90;;;;;;;19.59;71.06;102043.16;5048038;28;20511;-55
2022/04/14 09:39:53;;;;;;;12.90;6.70;;;;;;;19.85;69.87;102040.97;5047716;28;20369;-58
2022/04/14 09:42:22;;;;;;;12.27;6.10;;;;;;;20.03;66.69;102030.53;5047850;28;20456;-58
2022/04/14 09:44:51;;;;;;;11.52;6.22;;;;;;;20.06;66.96;102027.56;5047278;28;20094;-59
2022/04/14 09:47:25;;;;;;;11.57;6.00;;;;;;;20.43;67.75;102024.34;5047765;28;20436;-58
2022/04/14 09:49:53;;;;;;;12.90;6.15;;;;;;;20.72;66.56;102028.09;5045871;28;20059;-58
2022/04/14 09:52:22;;;;;;;13.90;5.88;;;;;;;20.41;64.54;102025.44;5048346;28;20075;-55
2022/04/14 09:54:50;;;;;;;9.52;5.47;;;;;;;20.62;63.81;102022.69;5047399;28;20519;-59
2022/04/14 09:57:18;;;;;;;8.95;5.30;;;;;;;20.86;64.61;102024.16;5048505;28;20075;-59
2022/04/14 09:59:46;;;;;;;12.18;6.20;;;;;;;20.89;63.89;102014.03;5047671;28;20431;-59
2022/04/14 10:02:16;;;;;;;12.85;6.25;;;;;;;21.22;62.53;102019.13;5047726;28;20045;-58
2022/04/14 10:04:46;;;;;;;12.02;6.10;;;;;;;21.41;60.98;102013.75;5046600;28;20041;-54
2022/04/14 10:07:15;;;;;;;9.48;5.97;;;;;;;21.56;60.54;102018.69;5046846;28;20063;-56
2022/04/14 10:09:45;;;;;;;11.18;6.20;;;;;;;21.59;60.94;102019.22;5047369;28;20049;-54
2022/04/14 10:12:30;;;;;;;9.95;6.00;;;;;;;21.82;61.13;102018.06;5048302;28;20063;-55
2022/04/14 10:15:03;;;;;;;12.27;6.45;;;;;;;21.78;60.23;102021.00;5045842;28;20057;-56
2022/04/14 10:17:33;;;;;;;12.27;5.97;;;;;;;22.21;60.13;102033.97;5047204;28;20432;-56
2022/04/14 10:20:03;;;;;;;11.40;6.55;;;;;;;22.12;58.28;102033.84;5046595;28;20041;-56
2022/04/14 10:22:32;;;;;;;10.57;6.00;;;;;;;22.10;57.76;102037.69;5047818;28;20052;-56
2022/04/14 10:25:02;;;;;;;13.25;5.78;;;;;;;22.12;58.34;102043.75;5046967;28;20049;-55
2022/04/14 10:27:30;;;;;;;10.98;6.40;;;;;;;21.93;58.20;102044.66;5047526;28;20084;-56
2022/04/14 10:29:59;;;;;;;12.93;6.47;;;;;;;22.32;58.22;102047.19;5046733;28;20076;-58
2022/04/14 10:32:28;;;;;;;14.63;7.63;;;;;;;22.14;58.64;102046.28;5047608;28;20061;-57
2022/04/14 10:34:57;;;;;;;13.38;7.45;;;;;;;22.47;56.65;102046.72;5045846;28;20041;-57
2022/04/14 10:37:31;;;;;;;13.23;6.43;;;;;;;22.10;56.46;102045.72;5047565;28;20415;-56
2022/04/14 10:39:59;;;;;;;9.70;5.65;;;;;;;22.14;56.33;102040.91;5046788;28;20400;-57
2022/04/14 10:42:29;;;;;;;11.57;6.43;;;;;;;22.75;56.54;102039.50;5047776;28;20128;-58
2022/04/14 10:44:57;;;;;;;9.77;5.22;;;;;;;23.06;53.98;102025.72;5046516;28;20045;-61
2022/04/14 10:47:54;;;;;;;12.65;5.85;;;;;;;23.29;52.39;102029.63;5045927;28;20079;-59
2022/04/14 10:50:24;;;;;;;10.32;5.50;;;;;;;23.44;52.24;102029.91;5046703;28;20060;-59
2022/04/14 10:53:04;;;;;;;24.60;6.68;;;;;;;23.49;53.50;102044.69;5050518;28;20049;-59
2022/04/14 10:55:41;;;;;;;11.07;5.05;;;;;;;23.36;52.99;102037.91;5051399;28;20553;-61
2022/04/14 10:58:46;;;;;;;10.68;5.55;;;;;;;23.37;52.38;102036.06;5050675;28;20053;-59
2022/04/14 11:01:14;;;;;;;10.00;4.88;;;;;;;23.86;52.11;102033.72;5050789;28;20152;-60
2022/04/14 11:03:47;;;;;;;9.48;5.03;;;;;;;23.89;50.69;102035.28;5049012;28;20079;-59
2022/04/14 11:06:50;;;;;;;8.68;5.18;;;;;;;24.08;50.62;102036.88;5051126;28;20115;-59
2022/04/14 11:09:55;;;;;;;9.43;5.32;;;;;;;24.08;48.84;102029.66;5050945;28;20053;-59
2022/04/14 11:12:27;;;;;;;9.57;5.43;;;;;;;24.35;48.36;102026.91;5051125;28;20055;-60
2022/04/14 11:14:57;;;;;;;15.20;6.27;;;;;;;24.05;48.97;102027.31;5050138;28;20767;-60
2022/04/14 11:18:06;;;;;;;12.70;6.00;;;;;;;24.37;50.02;102025.75;5050452;28;20072;-60
2022/04/14 11:20:55;;;;;;;13.65;6.55;;;;;;;24.61;48.00;102026.81;5050185;28;20503;-57
2022/04/14 11:23:26;;;;;;;9.13;5.93;;;;;;;24.87;46.68;102031.25;5049723;28;20055;-57